Time;durP1;ratioP1;P1;durP2;ratioP2;P2;SDS_P1;SDS_P2;PMS_P1;PMS_P2;Temp;Humidity;BMP_temperature;BMP_pressure;BME280_temperature;BME280_humidity;BME280_pressure;Samples;Min_cycle;Max_cycle;Signal;HPM_P1;HPM_P2
2021/12/29 00:00:59;;;;;;;1.13;0.50;;;9.90;99.90;;;;;;5013366;28;20382;-59
2021/12/29 00:03:25;;;;;;;2.33;1.30;;;9.80;99.90;;;;;;5014049;28;20018;-57
2021/12/29 00:05:50;;;;;;;3.15;1.75;;;9.90;99.90;;;;;;5014038;28;20461;-59
2021/12/29 00:08:16;;;;;;;2.72;1.10;;;9.90;99.90;;;;;;5014149;28;20022;-58
2021/12/29 00:10:42;;;;;;;0.95;0.50;;;9.90;99.90;;;;;;5013953;28;20028;-56
2021/12/29 00:13:07;;;;;;;1.30;0.50;;;9.90;99.90;;;;;;5013143;28;20025;-59
2021/12/29 00:15:33;;;;;;;1.00;0.60;;;9.90;99.90;;;;;;5012806;28;20080;-59
2021/12/29 00:17:59;;;;;;;2.70;0.70;;;10.00;99.90;;;;;;5012731;28;20104;-55
2021/12/29 00:20:29;;;;;;;1.02;0.60;;;10.00;99.90;;;;;;5014544;28;20036;-56
2021/12/29 00:22:56;;;;;;;0.90;0.50;;;10.00;99.90;;;;;;5012690;28;20389;-56
2021/12/29 00:25:22;;;;;;;0.40;0.40;;;10.00;99.90;;;;;;5013786;28;20105;-56
2021/12/29 00:27:48;;;;;;;2.00;0.60;;;10.00;99.90;;;;;;5013698;28;20089;-55
2021/12/29 00:30:14;;;;;;;3.45;0.57;;;10.00;99.90;;;;;;5012562;28;20029;-56
2021/12/29 00:32:40;;;;;;;0.85;0.85;;;10.10;99.90;;;;;;5012459;28;20032;-58
2021/12/29 00:35:08;;;;;;;1.25;0.60;;;10.10;99.90;;;;;;5012415;28;20113;-55
2021/12/29 00:37:34;;;;;;;0.80;0.80;;;10.10;99.90;;;;;;5013620;28;20022;-58
2021/12/29 00:39:59;;;;;;;1.50;0.52;;;10.10;99.90;;;;;;5012364;28;20109;-58
2021/12/29 00:42:25;;;;;;;0.98;0.40;;;10.10;99.90;;;;;;5013297;28;20076;-57
2021/12/29 00:44:51;;;;;;;0.50;0.50;;;10.10;99.90;;;;;;5013723;28;20096;-56
2021/12/29 00:47:18;;;;;;;0.95;0.30;;;10.10;99.90;;;;;;5013533;28;20034;-57
2021/12/29 00:49:46;;;;;;;0.77;0.50;;;10.20;99.90;;;;;;5012407;28;20029;-56
2021/12/29 00:52:12;;;;;;;3.03;0.50;;;10.20;99.90;;;;;;5013649;28;20025;-56
2021/12/29 00:54:40;;;;;;;0.30;0.22;;;10.20;99.90;;;;;;5013213;28;20033;-54
2021/12/29 00:57:05;;;;;;;0.95;0.30;;;10.20;99.90;;;;;;5012118;28;20029;-55
2021/12/29 00:59:31;;;;;;;1.83;0.28;;;10.20;99.90;;;;;;5013706;28;20030;-58
2021/12/29 01:01:57;;;;;;;0.20;0.20;;;10.20;99.90;;;;;;5016712;28;20096;-55
2021/12/29 01:04:23;;;;;;;0.60;0.40;;;10.20;99.90;;;;;;5017591;28;20026;-55
2021/12/29 01:06:49;;;;;;;0.20;0.20;;;10.30;99.90;;;;;;5016318;28;20030;-53
2021/12/29 01:09:15;;;;;;;0.30;0.30;;;10.30;99.90;;;;;;5016172;28;20076;-59
2021/12/29 01:11:41;;;;;;;0.28;0.28;;;10.20;99.90;;;;;;5017506;28;20079;-55
2021/12/29 01:14:08;;;;;;;0.38;0.30;;;10.20;99.90;;;;;;5016749;28;20033;-58
2021/12/29 01:19:12;;;;;;;2.25;0.40;;;10.20;99.90;;;;;;5017594;28;20061;-54
2021/12/29 01:21:40;;;;;;;0.30;0.30;;;10.10;99.90;;;;;;5017022;28;20369;-57
2021/12/29 01:24:07;;;;;;;0.47;0.40;;;10.20;99.90;;;;;;5017248;28;20377;-58
2021/12/29 01:26:33;;;;;;;0.30;0.30;;;10.20;99.90;;;;;;5017741;28;20060;-56
2021/12/29 01:28:59;;;;;;;2.70;1.80;;;10.20;99.90;;;;;;5015835;28;20197;-56
2021/12/29 01:31:25;;;;;;;3.78;2.10;;;10.20;99.90;;;;;;5017016;28;20025;-57
2021/12/29 01:33:50;;;;;;;3.45;2.08;;;10.20;99.90;;;;;;5017264;28;20080;-58
2021/12/29 01:36:16;;;;;;;1.05;0.80;;;10.20;99.90;;;;;;5016907;28;20029;-57
2021/12/29 01:38:42;;;;;;;1.67;1.02;;;10.20;99.90;;;;;;5015681;28;20109;-57
2021/12/29 01:41:07;;;;;;;1.38;0.80;;;10.30;99.90;;;;;;5017223;28;20538;-57
2021/12/29 01:43:33;;;;;;;3.70;0.70;;;10.20;99.90;;;;;;5017195;28;20078;-53
2021/12/29 01:45:59;;;;;;;1.15;0.65;;;10.20;99.90;;;;;;5016643;28;20036;-54
2021/12/29 01:48:25;;;;;;;0.40;0.40;;;10.30;99.90;;;;;;5016636;28;20026;-57
2021/12/29 01:50:52;;;;;;;0.88;0.70;;;10.20;99.90;;;;;;5015716;28;20052;-56
2021/12/29 01:53:26;;;;;;;0.73;0.50;;;10.20;99.90;;;;;;5016984;28;20124;-57
2021/12/29 01:55:52;;;;;;;4.03;0.50;;;10.20;99.90;;;;;;5016098;28;20145;-58
2021/12/29 01:58:19;;;;;;;0.85;0.60;;;10.20;99.90;;;;;;5016454;28;20022;-59
2021/12/29 02:00:45;;;;;;;0.50;0.50;;;10.10;99.90;;;;;;5017137;28;20021;-58
2021/12/29 02:03:10;;;;;;;0.75;0.30;;;10.10;99.90;;;;;;5016491;28;20072;-57
2021/12/29 02:05:37;;;;;;;0.88;0.47;;;10.20;99.90;;;;;;5016717;28;20026;-59
2021/12/29 02:08:05;;;;;;;0.63;0.50;;;10.10;99.90;;;;;;5016343;28;20026;-55
2021/12/29 02:10:35;;;;;;;0.50;0.50;;;10.10;99.90;;;;;;5016326;28;20090;-56
2021/12/29 02:13:00;;;;;;;1.50;0.80;;;10.10;99.90;;;;;;5014497;28;20034;-54
2021/12/29 02:15:26;;;;;;;0.77;0.52;;;10.10;99.90;;;;;;5015279;28;20056;-56
2021/12/29 02:17:52;;;;;;;0.50;0.50;;;10.10;99.90;;;;;;5014914;28;20092;-54
2021/12/29 02:20:21;;;;;;;0.95;0.55;;;10.00;99.90;;;;;;5014932;28;20045;-57
2021/12/29 02:22:54;;;;;;;0.55;0.55;;;10.00;99.90;;;;;;5016115;28;20018;-58
2021/12/29 02:25:32;;;;;;;0.50;0.50;;;10.10;99.90;;;;;;5016110;28;20022;-56
2021/12/29 02:28:02;;;;;;;0.95;0.47;;;10.10;99.90;;;;;;5014810;28;20485;-58
2021/12/29 02:30:27;;;;;;;3.50;1.15;;;10.10;99.90;;;;;;5016011;28;20018;-58
2021/12/29 02:32:55;;;;;;;1.42;1.02;;;10.10;99.90;;;;;;5015540;28;20029;-57
2021/12/29 02:35:22;;;;;;;1.02;0.68;;;10.20;99.90;;;;;;5014519;28;20029;-59
2021/12/29 02:37:48;;;;;;;1.08;0.70;;;10.20;99.90;;;;;;5014836;28;20381;-58
2021/12/29 02:40:14;;;;;;;2.05;1.00;;;10.20;99.90;;;;;;5014588;28;20022;-55
2021/12/29 02:42:42;;;;;;;1.33;0.75;;;10.20;99.90;;;;;;5014782;28;20026;-59
2021/12/29 02:45:10;;;;;;;1.83;0.90;;;10.10;99.90;;;;;;5015707;28;20014;-58
2021/12/29 02:47:36;;;;;;;1.50;1.00;;;10.10;99.90;;;;;;5014345;28;20018;-58
2021/12/29 02:50:03;;;;;;;2.83;1.10;;;10.20;99.90;;;;;;5014595;28;20029;-56
2021/12/29 02:52:29;;;;;;;1.02;0.93;;;10.20;99.90;;;;;;5015727;28;20029;-58
2021/12/29 02:54:54;;;;;;;1.65;1.02;;;10.10;99.90;;;;;;5014240;28;20022;-59
2021/12/29 02:57:20;;;;;;;1.50;1.20;;;10.10;99.90;;;;;;5015333;28;20033;-59
2021/12/29 02:59:46;;;;;;;2.25;1.00;;;10.10;99.90;;;;;;5014188;28;20025;-58
2021/12/29 03:02:12;;;;;;;2.67;1.27;;;10.10;99.90;;;;;;5015395;28;20107;-58
2021/12/29 03:04:38;;;;;;;1.27;0.90;;;10.10;99.90;;;;;;5014176;28;20026;-55
2021/12/29 03:07:03;;;;;;;1.10;0.93;;;10.10;99.90;;;;;;5014002;28;20026;-56
2021/12/29 03:09:30;;;;;;;4.70;1.10;;;10.00;99.90;;;;;;5014030;28;20607;-57
2021/12/29 03:11:56;;;;;;;0.90;0.82;;;10.00;99.90;;;;;;5015237;28;20028;-58
2021/12/29 03:14:22;;;;;;;1.15;0.88;;;10.00;99.90;;;;;;5013943;28;20120;-58
2021/12/29 03:16:48;;;;;;;0.90;0.85;;;10.10;99.90;;;;;;5015073;28;20085;-57
2021/12/29 03:19:14;;;;;;;1.45;0.82;;;10.10;99.90;;;;;;5013890;28;20068;-57
2021/12/29 03:21:40;;;;;;;1.15;0.90;;;10.10;99.90;;;;;;5015085;28;20022;-59
2021/12/29 03:24:07;;;;;;;2.00;1.17;;;10.10;99.90;;;;;;5013777;28;20465;-59
2021/12/29 03:26:33;;;;;;;1.48;1.38;;;10.10;99.90;;;;;;5013946;28;20033;-59
2021/12/29 03:28:59;;;;;;;1.60;1.50;;;10.10;99.90;;;;;;5015216;28;20058;-59
2021/12/29 03:31:27;;;;;;;0.90;0.85;;;10.10;99.90;;;;;;5014967;28;20032;-58
2021/12/29 03:33:53;;;;;;;1.48;1.10;;;10.10;99.90;;;;;;5014826;28;20084;-59
2021/12/29 03:36:18;;;;;;;1.55;1.02;;;10.10;99.90;;;;;;5014170;28;20109;-56
2021/12/29 03:38:45;;;;;;;2.20;0.90;;;10.10;99.90;;;;;;5013531;28;20388;-58
2021/12/29 03:41:14;;;;;;;1.23;0.75;;;10.10;99.90;;;;;;5014686;28;20021;-57
2021/12/29 03:43:42;;;;;;;4.85;2.33;;;10.10;99.90;;;;;;5013739;28;20396;-58
2021/12/29 03:46:08;;;;;;;1.65;0.70;;;10.10;99.90;;;;;;5014925;28;20041;-59
2021/12/29 03:48:36;;;;;;;1.08;0.68;;;10.00;99.90;;;;;;5014831;28;20026;-58
2021/12/29 03:51:03;;;;;;;1.83;1.08;;;10.00;99.90;;;;;;5013374;28;20026;-59
2021/12/29 03:53:31;;;;;;;1.58;1.00;;;10.10;99.90;;;;;;5013577;28;20116;-58
2021/12/29 03:55:57;;;;;;;1.30;1.00;;;10.10;99.90;;;;;;5013012;28;20033;-59
2021/12/29 03:58:25;;;;;;;1.65;1.00;;;10.00;99.90;;;;;;5013482;28;20022;-59
2021/12/29 04:00:53;;;;;;;3.13;1.73;;;10.00;99.90;;;;;;5014371;28;20022;-59
2021/12/29 04:03:19;;;;;;;2.50;1.88;;;10.00;99.90;;;;;;5014652;28;20032;-59
2021/12/29 04:05:46;;;;;;;1.15;1.00;;;10.00;99.90;;;;;;5014140;28;20026;-55
2021/12/29 04:08:11;;;;;;;1.70;1.33;;;10.10;99.90;;;;;;5012995;28;20064;-55
2021/12/29 04:10:39;;;;;;;6.32;1.80;;;10.00;99.90;;;;;;5014201;28;20061;-59
2021/12/29 04:13:05;;;;;;;1.10;0.77;;;10.00;99.90;;;;;;5012931;28;20057;-59
2021/12/29 04:15:31;;;;;;;2.33;1.05;;;10.00;99.90;;;;;;5012644;28;20026;-57
2021/12/29 04:17:58;;;;;;;0.93;0.93;;;10.00;99.90;;;;;;5012999;28;20389;-59
2021/12/29 04:23:18;;;;;;;1.90;1.67;;;9.90;99.90;;;;;;5014512;28;20080;-59
2021/12/29 04:25:48;;;;;;;1.73;1.40;;;9.90;99.90;;;;;;5013912;28;20030;-56
2021/12/29 04:28:19;;;;;;;2.17;1.13;;;9.90;99.90;;;;;;5013986;28;20030;-59
2021/12/29 04:30:46;;;;;;;3.20;2.60;;;10.00;99.90;;;;;;5014233;28;20072;-59
2021/12/29 04:33:12;;;;;;;1.73;1.20;;;9.90;99.90;;;;;;5013850;28;20041;-59
2021/12/29 04:35:37;;;;;;;5.05;2.25;;;10.00;99.90;;;;;;5012238;28;20026;-59
2021/12/29 04:38:03;;;;;;;2.78;1.95;;;10.00;99.90;;;;;;5012428;28;20026;-58
2021/12/29 04:40:29;;;;;;;2.58;1.40;;;10.00;99.90;;;;;;5012800;28;20117;-59
2021/12/29 04:42:54;;;;;;;2.70;1.50;;;10.00;99.90;;;;;;5012542;28;20026;-58
2021/12/29 04:45:20;;;;;;;3.08;1.70;;;10.00;99.90;;;;;;5013909;28;20017;-59
2021/12/29 04:47:48;;;;;;;1.50;1.40;;;10.00;99.90;;;;;;5012698;28;20049;-57
2021/12/29 04:50:28;;;;;;;1.92;1.48;;;10.00;99.90;;;;;;5012446;28;20029;-59
2021/12/29 04:52:59;;;;;;;1.80;1.45;;;10.00;99.90;;;;;;5012926;28;20034;-57
2021/12/29 04:55:28;;;;;;;1.70;1.30;;;10.00;99.90;;;;;;5013565;28;20465;-58
2021/12/29 04:57:54;;;;;;;4.53;1.48;;;10.00;99.90;;;;;;5013498;28;20034;-59
2021/12/29 05:00:23;;;;;;;2.25;1.48;;;10.00;99.90;;;;;;5012649;28;20125;-59
2021/12/29 05:02:49;;;;;;;1.80;1.50;;;10.00;99.90;;;;;;5012281;28;20030;-59
2021/12/29 05:05:40;;;;;;;1.92;1.17;;;9.90;99.90;;;;;;5012200;28;20026;-59
2021/12/29 05:10:48;;;;;;;1.90;1.38;;;9.90;99.90;;;;;;5014065;28;20032;-56
2021/12/29 05:13:15;;;;;;;1.20;1.10;;;9.90;99.90;;;;;;5012183;28;20108;-59
2021/12/29 05:15:40;;;;;;;2.33;1.52;;;9.90;99.90;;;;;;5012014;28;20080;-59
2021/12/29 05:18:06;;;;;;;2.45;1.48;;;10.00;99.90;;;;;;5013285;28;20026;-59
2021/12/29 05:20:32;;;;;;;1.83;1.55;;;9.90;99.90;;;;;;5013469;28;20026;-53
2021/12/29 05:22:59;;;;;;;1.95;1.38;;;9.90;99.90;;;;;;5013285;28;20046;-55
2021/12/29 05:25:26;;;;;;;1.50;1.38;;;9.90;99.90;;;;;;5013796;28;20097;-52
2021/12/29 05:27:52;;;;;;;2.67;1.30;;;9.90;99.90;;;;;;5013170;28;20077;-57
2021/12/29 05:30:18;;;;;;;1.85;1.48;;;9.90;99.90;;;;;;5011983;28;20036;-58
2021/12/29 05:32:45;;;;;;;3.38;1.33;;;9.90;99.90;;;;;;5013165;28;20026;-55
2021/12/29 05:35:11;;;;;;;2.03;1.65;;;9.90;99.90;;;;;;5013173;28;20025;-52
2021/12/29 05:37:37;;;;;;;5.43;1.50;;;9.90;99.90;;;;;;5012716;28;20030;-56
2021/12/29 05:40:05;;;;;;;2.08;1.60;;;9.90;99.90;;;;;;5011846;28;20060;-56
2021/12/29 05:42:33;;;;;;;2.67;1.30;;;9.90;99.90;;;;;;5013460;28;20026;-55
2021/12/29 05:45:10;;;;;;;3.33;1.58;;;9.80;99.90;;;;;;5012712;28;20033;-59
2021/12/29 05:47:37;;;;;;;1.55;1.40;;;9.80;99.90;;;;;;5012458;28;20053;-57
2021/12/29 05:50:05;;;;;;;1.92;1.25;;;9.80;99.90;;;;;;5015524;28;20026;-55
2021/12/29 05:52:31;;;;;;;1.88;1.30;;;9.80;99.90;;;;;;5016607;28;20037;-56
2021/12/29 05:54:56;;;;;;;6.57;1.35;;;9.80;99.90;;;;;;5016650;28;20107;-53
2021/12/29 05:57:22;;;;;;;1.33;1.20;;;9.80;99.90;;;;;;5015596;28;20022;-52
2021/12/29 05:59:48;;;;;;;2.22;1.83;;;9.80;99.90;;;;;;5016153;28;20037;-59
2021/12/29 06:02:13;;;;;;;1.50;1.40;;;9.80;99.90;;;;;;5016992;28;20022;-56
2021/12/29 06:04:39;;;;;;;2.92;1.20;;;9.80;99.90;;;;;;5015606;28;20076;-57
2021/12/29 06:07:05;;;;;;;2.40;1.13;;;9.80;99.90;;;;;;5016466;28;20049;-58
2021/12/29 06:09:30;;;;;;;1.63;1.23;;;9.80;99.90;;;;;;5015064;28;20121;-55
2021/12/29 06:11:56;;;;;;;1.50;1.20;;;9.80;99.90;;;;;;5016514;28;20075;-55
2021/12/29 06:14:22;;;;;;;2.53;1.30;;;9.80;99.90;;;;;;5015407;28;20022;-55
2021/12/29 06:16:48;;;;;;;1.17;1.08;;;9.80;99.90;;;;;;5014849;28;20030;-57
2021/12/29 06:19:14;;;;;;;1.52;1.42;;;9.80;99.90;;;;;;5016468;28;20022;-58
2021/12/29 06:21:40;;;;;;;1.10;1.00;;;9.80;99.90;;;;;;5014885;28;20030;-55
2021/12/29 06:24:07;;;;;;;1.10;0.90;;;9.80;99.90;;;;;;5016166;28;20053;-56
2021/12/29 06:26:33;;;;;;;1.40;1.25;;;9.80;99.90;;;;;;5016530;28;20046;-53
2021/12/29 06:28:59;;;;;;;1.40;1.30;;;9.70;99.90;;;;;;5016378;28;20041;-55
2021/12/29 06:31:25;;;;;;;0.85;0.70;;;9.70;99.90;;;;;;5014820;28;20030;-54
2021/12/29 06:33:51;;;;;;;1.83;0.98;;;9.80;99.90;;;;;;5015031;28;20029;-58
2021/12/29 06:36:17;;;;;;;1.90;1.05;;;9.70;99.90;;;;;;5015779;28;20026;-55
2021/12/29 06:38:43;;;;;;;3.13;2.42;;;9.70;99.90;;;;;;5015769;28;20032;-56
2021/12/29 06:41:09;;;;;;;5.53;1.35;;;9.80;99.90;;;;;;5014676;28;20072;-57
2021/12/29 06:43:34;;;;;;;1.50;1.10;;;9.80;99.90;;;;;;5015807;28;20026;-57
2021/12/29 06:46:00;;;;;;;1.30;1.20;;;9.80;99.90;;;;;;5014690;28;20053;-59
2021/12/29 06:48:26;;;;;;;1.52;1.40;;;9.80;99.90;;;;;;5016497;28;20144;-52
2021/12/29 06:50:51;;;;;;;2.22;1.67;;;9.80;99.90;;;;;;5016151;28;20025;-58
2021/12/29 06:53:17;;;;;;;3.05;1.52;;;9.80;99.90;;;;;;5014448;28;20528;-53
2021/12/29 06:55:43;;;;;;;2.20;2.00;;;9.70;99.90;;;;;;5015524;28;20469;-59
2021/12/29 06:58:10;;;;;;;6.18;1.83;;;9.70;99.90;;;;;;5015355;28;20049;-57
2021/12/29 07:00:36;;;;;;;13.98;6.82;;;9.70;99.90;;;;;;5015535;28;20026;-56
2021/12/29 07:03:02;;;;;;;17.05;8.60;;;9.70;99.90;;;;;;5014151;28;20026;-57
2021/12/29 07:05:28;;;;;;;16.42;9.25;;;9.70;99.90;;;;;;5014962;28;20025;-58
2021/12/29 07:07:54;;;;;;;42.58;17.58;;;9.60;99.90;;;;;;5014112;28;20022;-58
2021/12/29 07:10:21;;;;;;;44.40;20.58;;;9.60;99.90;;;;;;5015229;28;20084;-57
2021/12/29 07:12:47;;;;;;;7.93;5.13;;;9.60;99.90;;;;;;5013971;28;20036;-57
2021/12/29 07:15:13;;;;;;;6.68;5.65;;;9.60;99.90;;;;;;5015662;28;20024;-57
2021/12/29 07:17:39;;;;;;;29.55;12.18;;;9.60;99.90;;;;;;5033590;28;20033;-57
2021/12/29 07:20:05;;;;;;;15.80;8.05;;;9.60;99.90;;;;;;5034850;28;20018;-57
2021/12/29 07:22:31;;;;;;;10.38;6.13;;;9.60;99.90;;;;;;5035099;28;20057;-56
2021/12/29 07:24:57;;;;;;;3.25;2.35;;;9.60;99.90;;;;;;5033810;28;20124;-56
2021/12/29 07:27:23;;;;;;;2.95;1.58;;;9.60;99.90;;;;;;5034329;28;20037;-56
2021/12/29 07:29:48;;;;;;;1.52;1.42;;;9.60;99.90;;;;;;5033468;28;20022;-56
2021/12/29 07:32:14;;;;;;;2.97;2.65;;;9.60;99.90;;;;;;5034615;28;20026;-57
2021/12/29 07:34:40;;;;;;;6.07;4.13;;;9.60;99.90;;;;;;5034659;28;20029;-58
2021/12/29 07:37:06;;;;;;;2.88;2.10;;;9.60;99.90;;;;;;5033146;28;20036;-53
2021/12/29 07:39:31;;;;;;;1.92;1.73;;;9.60;99.90;;;;;;5033289;28;20017;-53
2021/12/29 07:41:57;;;;;;;2.90;1.50;;;9.60;99.90;;;;;;5034294;28;20028;-54
2021/12/29 07:44:26;;;;;;;2.20;1.63;;;9.60;99.90;;;;;;5033174;28;20468;-55
2021/12/29 07:46:54;;;;;;;2.13;1.38;;;9.70;99.90;;;;;;5034256;28;20028;-57
2021/12/29 07:49:21;;;;;;;1.48;1.30;;;9.70;99.90;;;;;;5033035;28;20053;-54
2021/12/29 07:51:48;;;;;;;1.98;1.70;;;9.70;99.90;;;;;;5033209;28;20493;-55
2021/12/29 07:54:14;;;;;;;1.83;1.17;;;9.70;99.90;;;;;;5033089;28;20060;-57
2021/12/29 07:56:40;;;;;;;3.08;1.65;;;9.80;99.90;;;;;;5033439;28;20048;-57
2021/12/29 07:59:06;;;;;;;3.55;2.58;;;9.80;99.90;;;;;;5034144;28;20028;-55
2021/12/29 08:01:32;;;;;;;2.30;1.60;;;9.80;99.90;;;;;;5033120;28;20021;-58
2021/12/29 08:03:58;;;;;;;2.63;1.65;;;9.80;99.90;;;;;;5034338;28;20029;-57
2021/12/29 08:06:24;;;;;;;5.20;1.70;;;9.80;99.90;;;;;;5032741;28;20025;-59
2021/12/29 08:08:49;;;;;;;2.38;2.03;;;9.80;99.90;;;;;;5033060;28;20120;-56
2021/12/29 08:11:16;;;;;;;2.25;2.00;;;9.80;99.90;;;;;;5032147;28;20033;-58
2021/12/29 08:13:42;;;;;;;5.90;3.22;;;9.80;99.90;;;;;;5033710;28;20029;-57
2021/12/29 08:16:08;;;;;;;2.13;1.63;;;9.90;99.90;;;;;;5032524;28;20032;-59
2021/12/29 08:18:34;;;;;;;2.95;1.40;;;9.90;99.90;;;;;;5032636;28;20021;-57
2021/12/29 08:21:00;;;;;;;2.00;1.48;;;9.90;99.90;;;;;;5033769;28;20024;-57
2021/12/29 08:23:25;;;;;;;5.15;2.38;;;9.90;99.90;;;;;;5032576;28;20056;-59
2021/12/29 08:25:51;;;;;;;5.60;2.97;;;10.00;99.90;;;;;;5033582;28;20032;-59
2021/12/29 08:28:18;;;;;;;11.65;5.35;;;10.00;99.90;;;;;;5033940;28;20025;-57
2021/12/29 08:30:44;;;;;;;3.65;2.03;;;10.00;99.90;;;;;;5033724;28;20060;-57
2021/12/29 08:33:09;;;;;;;11.13;4.50;;;10.00;99.90;;;;;;5032652;28;20026;-55
2021/12/29 08:35:35;;;;;;;3.60;2.22;;;10.00;99.90;;;;;;5033002;28;20080;-55
2021/12/29 08:38:01;;;;;;;4.35;2.45;;;10.00;99.90;;;;;;5032507;28;20032;-55
2021/12/29 08:40:27;;;;;;;3.08;2.20;;;10.10;99.90;;;;;;5033510;28;20053;-53
2021/12/29 08:42:55;;;;;;;3.00;2.40;;;10.10;99.90;;;;;;5032255;28;20056;-53
2021/12/29 08:45:22;;;;;;;5.35;3.10;;;10.10;99.90;;;;;;5033460;28;20052;-56
2021/12/29 08:47:48;;;;;;;4.13;2.67;;;10.10;99.90;;;;;;5033398;28;20029;-57
2021/12/29 08:50:15;;;;;;;4.75;2.70;;;10.20;99.90;;;;;;5032156;28;20572;-59
2021/12/29 08:52:41;;;;;;;4.03;3.10;;;10.30;99.90;;;;;;5033332;28;20124;-54
2021/12/29 08:55:09;;;;;;;4.03;3.08;;;10.30;99.90;;;;;;5033349;28;20105;-58
2021/12/29 08:57:35;;;;;;;6.03;3.80;;;10.20;99.90;;;;;;5033269;28;20022;-58
2021/12/29 09:00:03;;;;;;;5.50;2.80;;;10.20;99.90;;;;;;5032407;28;20175;-58
2021/12/29 09:02:28;;;;;;;5.03;3.75;;;10.30;99.90;;;;;;5033231;28;20025;-56
2021/12/29 09:04:54;;;;;;;3.53;3.08;;;10.20;99.90;;;;;;5032044;28;20063;-53
2021/12/29 09:07:20;;;;;;;2.35;2.03;;;10.20;99.90;;;;;;5033348;28;20026;-57
2021/12/29 09:09:45;;;;;;;3.10;2.30;;;10.20;99.90;;;;;;5031975;28;20022;-54
2021/12/29 09:12:11;;;;;;;3.72;3.20;;;10.20;99.90;;;;;;5032755;28;20044;-55
2021/12/29 09:14:36;;;;;;;3.47;2.50;;;10.30;99.90;;;;;;5032717;28;20032;-57
2021/12/29 09:17:02;;;;;;;4.15;3.20;;;10.30;99.90;;;;;;5019434;28;20030;-57
2021/12/29 09:19:30;;;;;;;6.90;3.55;;;10.30;99.90;;;;;;5013344;28;20049;-59
2021/12/29 09:21:56;;;;;;;4.20;2.83;;;10.30;99.90;;;;;;5012170;28;20026;-58
2021/12/29 09:24:22;;;;;;;3.88;2.33;;;10.40;99.90;;;;;;5017331;28;20048;-55
2021/12/29 09:26:48;;;;;;;3.13;2.53;;;10.40;99.90;;;;;;5016421;28;20062;-57
2021/12/29 09:29:14;;;;;;;3.17;2.72;;;10.40;99.90;;;;;;5016230;28;20053;-57
2021/12/29 09:31:40;;;;;;;3.45;2.80;;;10.50;99.90;;;;;;5017140;28;20033;-58
2021/12/29 09:34:07;;;;;;;5.00;2.72;;;10.50;99.90;;;;;;5016673;28;20022;-59
2021/12/29 09:36:33;;;;;;;4.18;3.13;;;10.50;99.90;;;;;;5016789;28;20037;-55
2021/12/29 09:39:00;;;;;;;3.75;2.60;;;10.50;99.90;;;;;;5015765;28;20022;-57
2021/12/29 09:41:26;;;;;;;3.00;2.50;;;10.50;99.90;;;;;;5015761;28;20089;-55
2021/12/29 09:43:52;;;;;;;2.65;1.98;;;10.50;99.90;;;;;;5016938;28;20017;-56
2021/12/29 09:46:17;;;;;;;4.68;2.13;;;10.50;99.90;;;;;;5015746;28;20121;-57
2021/12/29 09:48:45;;;;;;;2.50;1.92;;;10.50;99.90;;;;;;5015553;28;20068;-56
2021/12/29 09:51:11;;;;;;;3.22;2.63;;;10.50;99.90;;;;;;5016083;28;20049;-57
2021/12/29 09:53:38;;;;;;;4.03;2.45;;;10.50;99.90;;;;;;5015854;28;20030;-55
2021/12/29 09:56:05;;;;;;;6.65;2.72;;;10.50;99.90;;;;;;5015370;28;20022;-59
2021/12/29 09:58:31;;;;;;;3.95;2.95;;;10.50;99.90;;;;;;5015398;28;20050;-59
2021/12/29 10:01:02;;;;;;;2.58;2.38;;;10.50;99.90;;;;;;5015414;28;20060;-56
2021/12/29 10:03:29;;;;;;;3.47;2.90;;;10.60;99.90;;;;;;5016978;28;20022;-57
2021/12/29 10:05:57;;;;;;;5.63;2.70;;;10.60;99.90;;;;;;5015134;28;20076;-59
2021/12/29 10:08:34;;;;;;;5.25;2.90;;;10.60;99.90;;;;;;5016494;28;20032;-56
2021/12/29 10:11:07;;;;;;;3.63;2.75;;;10.70;99.90;;;;;;5016369;28;20029;-59
2021/12/29 10:13:35;;;;;;;5.88;3.25;;;10.70;99.90;;;;;;5015473;28;20030;-54
2021/12/29 10:16:05;;;;;;;4.07;2.30;;;10.80;99.90;;;;;;5016092;28;20022;-59
2021/12/29 10:18:32;;;;;;;4.47;3.10;;;10.80;99.90;;;;;;5014910;28;20052;-57
2021/12/29 10:21:03;;;;;;;3.08;2.38;;;11.00;99.90;;;;;;5016295;28;20080;-58
2021/12/29 10:23:31;;;;;;;3.13;2.00;;;11.00;99.90;;;;;;5016221;28;20114;-55
2021/12/29 10:26:12;;;;;;;3.72;1.85;;;11.20;99.90;;;;;;5016049;28;20097;-59
2021/12/29 10:28:42;;;;;;;3.42;2.30;;;11.30;99.90;;;;;;5016473;28;20109;-58
2021/12/29 10:31:13;;;;;;;7.35;2.50;;;11.30;99.90;;;;;;5014784;28;20065;-60
2021/12/29 10:33:46;;;;;;;4.30;2.05;;;11.40;99.90;;;;;;5014317;28;20030;-60
2021/12/29 10:36:14;;;;;;;2.72;1.85;;;11.40;99.90;;;;;;5015941;28;20472;-61
2021/12/29 10:38:43;;;;;;;2.10;1.40;;;11.50;99.90;;;;;;5016009;28;20033;-61
2021/12/29 10:41:49;;;;;;;1.60;1.50;;;11.60;99.90;;;;;;5015917;28;20026;-58
2021/12/29 10:44:15;;;;;;;4.50;3.10;;;11.70;99.90;;;;;;5016256;28;20022;-59
2021/12/29 10:46:41;;;;;;;2.20;1.88;;;11.60;99.90;;;;;;5014399;28;20040;-58
2021/12/29 10:49:09;;;;;;;2.30;1.42;;;11.70;99.90;;;;;;5015820;28;20018;-58
2021/12/29 10:51:38;;;;;;;4.78;2.45;;;11.70;99.90;;;;;;5014438;28;20033;-59
2021/12/29 10:54:17;;;;;;;3.25;1.70;;;11.70;99.90;;;;;;5015191;28;20106;-59
2021/12/29 10:57:05;;;;;;;2.38;1.10;;;11.70;99.90;;;;;;5014231;28;20026;-59
2021/12/29 10:59:35;;;;;;;1.77;1.00;;;11.70;99.90;;;;;;5013888;28;20037;-57
2021/12/29 11:02:02;;;;;;;1.38;1.00;;;11.60;99.90;;;;;;5015080;28;20109;-54
2021/12/29 11:04:28;;;;;;;1.85;1.40;;;11.50;99.90;;;;;;5015517;28;20049;-53
2021/12/29 11:06:56;;;;;;;2.05;1.05;;;11.50;99.90;;;;;;5015779;28;20026;-62
2021/12/29 11:09:32;;;;;;;1.52;1.10;;;11.40;99.90;;;;;;5014160;28;20030;-57
2021/12/29 11:12:00;;;;;;;9.10;1.70;;;11.40;99.90;;;;;;5015335;28;20033;-60
2021/12/29 11:14:29;;;;;;;1.48;1.05;;;11.30;99.90;;;;;;5013951;28;20030;-53
2021/12/29 11:17:25;;;;;;;1.73;1.23;;;11.40;99.90;;;;;;5024152;28;20067;-56
2021/12/29 11:19:57;;;;;;;2.92;1.40;;;11.40;99.90;;;;;;5035300;28;20032;-58
2021/12/29 11:22:28;;;;;;;1.33;1.20;;;11.50;99.90;;;;;;5033928;28;20022;-56
2021/12/29 11:24:59;;;;;;;2.65;1.45;;;11.60;99.90;;;;;;5034439;28;20049;-59
2021/12/29 11:27:27;;;;;;;2.75;1.30;;;11.70;99.90;;;;;;5034815;28;20048;-59
2021/12/29 11:30:00;;;;;;;3.45;1.40;;;11.70;99.90;;;;;;5034722;28;20060;-57
2021/12/29 11:32:33;;;;;;;3.45;1.20;;;11.80;99.90;;;;;;5033567;28;20032;-57
2021/12/29 11:35:00;;;;;;;2.35;1.13;;;11.80;99.90;;;;;;5034985;28;20484;-55
2021/12/29 11:37:27;;;;;;;3.08;1.20;;;11.90;99.90;;;;;;5032990;28;20091;-57
2021/12/29 11:39:52;;;;;;;1.58;1.48;;;12.00;99.90;;;;;;5034558;28;20071;-59
2021/12/29 11:42:18;;;;;;;3.42;1.33;;;12.00;99.90;;;;;;5034811;28;20025;-57
2021/12/29 11:44:44;;;;;;;4.00;1.77;;;12.10;99.90;;;;;;5033105;28;20018;-59
2021/12/29 11:47:10;;;;;;;3.00;1.60;;;12.10;99.90;;;;;;5024694;28;20108;-58
2021/12/29 11:50:04;;;;;;;2.30;1.33;;;12.20;99.90;;;;;;5032454;28;20083;-59
2021/12/29 11:52:49;;;;;;;4.93;1.40;;;12.20;99.90;;;;;;5034135;28;20447;-60
2021/12/29 11:58:41;;;;;;;2.90;1.50;;;12.40;99.90;;;;;;5034319;28;20045;-51
2021/12/29 12:01:20;;;;;;;4.53;1.45;;;12.40;99.90;;;;;;5032831;28;20033;-55
2021/12/29 12:03:52;;;;;;;2.95;1.30;;;12.40;99.90;;;;;;5032681;28;20063;-58
2021/12/29 12:06:22;;;;;;;4.10;1.55;;;12.40;99.90;;;;;;5032954;28;20112;-54
2021/12/29 12:08:59;;;;;;;3.28;1.98;;;12.40;99.90;;;;;;5033915;28;20021;-58
2021/12/29 12:11:26;;;;;;;5.88;2.33;;;12.40;99.90;;;;;;5033767;28;20044;-52
2021/12/29 12:13:52;;;;;;;4.35;1.75;;;12.50;99.90;;;;;;5032590;28;20018;-57
2021/12/29 12:16:19;;;;;;;1.42;1.08;;;12.50;99.90;;;;;;5033597;28;20387;-58
2021/12/29 12:18:50;;;;;;;6.80;1.75;;;12.50;99.90;;;;;;5032526;28;20025;-55
2021/12/29 12:21:39;;;;;;;3.72;1.50;;;12.50;99.90;;;;;;5032537;28;20026;-57
2021/12/29 12:24:32;;;;;;;2.40;1.50;;;12.40;99.90;;;;;;5033748;28;20411;-57
2021/12/29 12:27:05;;;;;;;4.40;1.20;;;12.40;99.90;;;;;;5029303;28;20064;-55
2021/12/29 12:29:37;;;;;;;9.35;3.38;;;12.40;99.90;;;;;;5032587;28;20036;-55
2021/12/29 12:32:15;;;;;;;4.20;1.75;;;12.40;99.90;;;;;;5032230;28;20037;-57
2021/12/29 12:35:07;;;;;;;5.32;2.28;;;12.30;99.90;;;;;;5033478;28;20071;-54
2021/12/29 12:37:46;;;;;;;7.18;1.70;;;12.20;99.90;;;;;;5027591;28;20045;-56
2021/12/29 12:40:30;;;;;;;5.15;2.58;;;12.10;99.90;;;;;;5032191;28;20027;-57
2021/12/29 12:43:13;;;;;;;10.60;2.60;;;12.00;99.90;;;;;;5032187;28;20112;-57
2021/12/29 12:45:52;;;;;;;4.78;2.53;;;12.00;99.90;;;;;;5032393;28;20109;-54
2021/12/29 12:48:33;;;;;;;5.97;2.17;;;11.90;99.90;;;;;;5033349;28;20041;-56
2021/12/29 12:51:12;;;;;;;4.20;1.70;;;11.90;99.90;;;;;;5032022;28;20197;-59
2021/12/29 12:53:37;;;;;;;2.40;1.33;;;11.70;99.90;;;;;;5033330;28;20032;-57
2021/12/29 12:56:06;;;;;;;1.45;1.23;;;11.80;99.90;;;;;;5033053;28;20021;-53
2021/12/29 12:58:47;;;;;;;2.83;1.50;;;11.80;99.90;;;;;;5031872;28;20029;-54
2021/12/29 13:01:59;;;;;;;8.02;1.60;;;11.70;99.90;;;;;;5033198;28;20021;-55
2021/12/29 13:04:24;;;;;;;10.27;4.65;;;11.80;99.90;;;;;;5033289;28;20018;-53
2021/12/29 13:06:51;;;;;;;6.60;1.90;;;11.80;99.90;;;;;;5033007;28;20037;-57